[x] [x]
.:Aeroklub Partizánske:. |  .:Fotogaléria:. |  .:Videogaléria:. |  .:Foto týždňa:. |  .:Kniha návštev:. |  .:Linky:. |  .:Moje konto:.
 MENU [x]

 METEO [x]

 FotoGaléria [x]

 Slnko [x]
LZPT Partizánske
48°37'N 18°20'E
Východ: 7:05 AM
Západ: 4:00 PM
LZIB Bratislava
48°10'N 17°12'E
Východ: 7:08 AM
Západ: 4:06 PM
LZKZ Košice
48°39'N 21°14'E
Východ: 6:53 AM
Západ: 3:48 PM

 Jazyky [x]
Vyberte jazyk rozhrania:

Slovak English German Polish


  SPRÁVY METAR - ČESKÁ REPUBLIKA
Brno-TuřanyLKTB 231130Z 13006KT 9999 BKN019 06/02 Q1029 NOSIGdekóduj
ČáslavLKCV 231100Z 14008KT 9999 BKN017 07/04 Q1028 NOSIG RMK WHT WHTdekóduj
HolešovLKHO 010800Z VRB03KT CAVOK 23/17 Q1019dekóduj
Hradec Královedekóduj
Karlovy VaryLKKV 231139Z 13004KT 1500 BR OVC002 02/01 Q1025 RMK REG QNH 1022dekóduj
KunoviceLKKU 211500Z 01006KT 9999 OVC026 06/04 Q1025dekóduj
LiberecLKLB 020602Z 16003KT 9999 FEW016 BKN043 M01/M02 Q1016dekóduj
Mariánsky Láznědekóduj
Náměšť nad OslavouLKNA 231100Z 14011KT 110V180 9999 FEW012 BKN015 05/03 Q1028 NOSIG RMK WHT WHTdekóduj
Ostrava-MošnovLKMT 231130Z 19007KT 160V220 9999 BKN030 07/01 Q1029 NOSIGdekóduj
PardubiceLKPD 231100Z 09004KT 060V170 9999 BKN020 07/03 Q1028 NOSIG RMK WHT WHTdekóduj
Praha-KbelyLKKB 231100Z 19004KT 4500 BR BKN008 OVC010 04/03 Q1027 NOSIGdekóduj
Praha-RuzyněLKPR 231130Z 17004KT 5000 BR SCT005 OVC006 03/02 Q1027 NOSIGdekóduj
PřerovLKPO 010000Z 05005KT CAVOK 04/01 Q1013dekóduj
 FreeFly INFO [x]
COROWA 2009


COROWA 2009


COROWA 2009



 LZPT webcam [x]

 Foto týždňa [x]

 KBO SNA [x]

 Login [x]
Užívateľské meno

Heslo


Ešte nemáš konto? Môžeš si ho vytvoriť. Registrovaný užívateľ má množstvo výhod, napr. posielanie okamžitých správ iným užívateľom, posielanie komentárov s vlastným menom, možnosť pridávať fotografie do galérie...

 Kto je online [x]
Momentálne je online 54 hostí a 0 členov.

Ste anonymný užívateľ. Zaregistrovať sa môžete tu

DETAILY

 Linky [x]

 Počítadlo návštev [x]
Zaznamenali sme
34357223
strán zobrazených od júna 2003

Počet dnešných unikátnych IP adries:
0



www.freefly.sk
Powered by SzMsoft ©2003-2005. Polish translations by Cezary Dąbek. Flying server www.freefly.sk is administrated by maro@freefly.sk - www.artweb.freefly.sk
PHP-Nuke Copyright © 2004 by Francisco Burzi. This is free software, and you may redistribute it under the GPL. PHP-Nuke comes with absolutely no warranty, for details, see the license.